Time;durP1;ratioP1;P1;durP2;ratioP2;P2;SDS_P1;SDS_P2;PMS_P1;PMS_P2;Temp;Humidity;BMP_temperature;BMP_pressure;BME280_temperature;BME280_humidity;BME280_pressure;Samples;Min_cycle;Max_cycle;Signal;HPM_P1;HPM_P2
2023/03/16 00:00:58;;;;;;;12.25;9.90;;;;;;;;;;4982735;28;20373;-84
2023/03/16 00:03:29;;;;;;;16.35;13.02;;;;;;;;;;4963876;28;20217;-85
2023/03/16 00:05:58;;;;;;;21.13;13.25;;;;;;;;;;4964978;28;20270;-84
2023/03/16 00:08:27;;;;;;;24.42;14.13;;;;;;;;;;4965693;28;20583;-85
2023/03/16 00:10:57;;;;;;;16.95;12.57;;;;;;;;;;4952883;28;20606;-84
2023/03/16 00:13:26;;;;;;;22.02;14.32;;;;;;;;;;4965857;28;20294;-84
2023/03/16 00:15:57;;;;;;;21.90;14.30;;;;;;;;;;4966717;28;20275;-84
2023/03/16 00:18:27;;;;;;;24.55;15.65;;;;;;;;;;4954498;29;20767;-84
2023/03/16 00:20:57;;;;;;;19.25;12.90;;;;;;;;;;4946982;29;20298;-84
2023/03/16 00:23:27;;;;;;;18.50;12.63;;;;;;;;;;4975864;28;20203;-84
2023/03/16 00:25:57;;;;;;;14.75;12.00;;;;;;;;;;4971159;28;20258;-84
2023/03/16 00:28:27;;;;;;;14.75;12.48;;;;;;;;;;4967588;28;20703;-84
2023/03/16 00:30:58;;;;;;;17.00;12.70;;;;;;;;;;4952931;28;20203;-84
2023/03/16 00:33:26;;;;;;;17.17;12.85;;;;;;;;;;4966492;28;20259;-84
2023/03/16 00:36:01;;;;;;;14.98;12.90;;;;;;;;;;4967421;28;20230;-84
2023/03/16 00:38:33;;;;;;;18.48;12.63;;;;;;;;;;4934585;28;20293;-85
2023/03/16 00:41:02;;;;;;;16.60;13.13;;;;;;;;;;4983885;28;20235;-84
2023/03/16 00:43:39;;;;;;;18.60;13.38;;;;;;;;;;4983763;28;20271;-85
2023/03/16 00:46:08;;;;;;;19.48;13.38;;;;;;;;;;4984358;28;20227;-85
2023/03/16 00:48:37;;;;;;;17.52;13.32;;;;;;;;;;4951084;28;20290;-84
2023/03/16 00:51:07;;;;;;;19.88;14.75;;;;;;;;;;4950959;28;20263;-85
2023/03/16 00:53:37;;;;;;;19.45;14.30;;;;;;;;;;4966387;28;20290;-84
2023/03/16 00:56:06;;;;;;;16.70;13.80;;;;;;;;;;4965458;28;20282;-84
2023/03/16 00:58:35;;;;;;;18.00;13.40;;;;;;;;;;4950363;28;20298;-84
2023/03/16 01:01:04;;;;;;;16.00;13.80;;;;;;;;;;4966636;28;20279;-84
2023/03/16 01:03:33;;;;;;;18.95;14.32;;;;;;;;;;4965181;28;20338;-84
2023/03/16 01:06:06;;;;;;;21.35;13.48;;;;;;;;;;4965623;28;20338;-84
2023/03/16 01:08:34;;;;;;;17.70;12.98;;;;;;;;;;4965548;28;20317;-84
2023/03/16 01:11:05;;;;;;;18.30;14.10;;;;;;;;;;4981997;28;20238;-84
2023/03/16 01:13:34;;;;;;;17.48;13.35;;;;;;;;;;4948505;28;20176;-84
2023/03/16 01:16:03;;;;;;;24.75;15.18;;;;;;;;;;4965540;28;20286;-84
2023/03/16 01:18:33;;;;;;;19.58;15.55;;;;;;;;;;4982065;28;20338;-84
2023/03/16 01:21:02;;;;;;;23.98;14.63;;;;;;;;;;4965411;28;20262;-84
2023/03/16 01:23:30;;;;;;;19.80;16.10;;;;;;;;;;4964922;28;20266;-84
2023/03/16 01:25:59;;;;;;;20.27;15.88;;;;;;;;;;4983213;28;20290;-83
2023/03/16 01:28:30;;;;;;;27.48;17.60;;;;;;;;;;4965880;28;20286;-84
2023/03/16 01:31:00;;;;;;;24.35;16.42;;;;;;;;;;4950265;28;20282;-84
2023/03/16 01:33:29;;;;;;;23.80;17.02;;;;;;;;;;4965023;28;20278;-84
2023/03/16 01:35:59;;;;;;;19.95;16.15;;;;;;;;;;4981969;28;20321;-84
2023/03/16 01:38:32;;;;;;;26.70;16.67;;;;;;;;;;4964770;28;20302;-84
2023/03/16 01:41:02;;;;;;;25.38;17.33;;;;;;;;;;4948448;28;20689;-84
2023/03/16 01:43:33;;;;;;;29.30;18.48;;;;;;;;;;4965544;28;20672;-83
2023/03/16 01:46:16;;;;;;;23.90;16.85;;;;;;;;;;4965848;28;20672;-84
2023/03/16 01:48:50;;;;;;;24.02;18.35;;;;;;;;;;4966619;28;20624;-84
2023/03/16 01:51:23;;;;;;;22.70;16.42;;;;;;;;;;4950554;28;20608;-84
2023/03/16 01:53:54;;;;;;;28.17;17.33;;;;;;;;;;4965460;28;20338;-84
2023/03/16 01:56:25;;;;;;;24.35;17.33;;;;;;;;;;4965496;28;20722;-84
2023/03/16 01:58:57;;;;;;;27.50;17.88;;;;;;;;;;4982411;28;20271;-84
2023/03/16 02:01:27;;;;;;;24.80;17.92;;;;;;;;;;4965612;28;20267;-84
2023/03/16 02:03:57;;;;;;;22.73;17.45;;;;;;;;;;4965119;28;20648;-84
2023/03/16 02:06:27;;;;;;;24.50;18.48;;;;;;;;;;4948259;28;20315;-84
2023/03/16 02:08:57;;;;;;;22.83;18.38;;;;;;;;;;4981219;28;20219;-84
2023/03/16 02:11:26;;;;;;;24.80;18.35;;;;;;;;;;4981130;28;20282;-83
2023/03/16 02:14:06;;;;;;;25.98;19.17;;;;;;;;;;4963652;28;20269;-83
2023/03/16 02:16:34;;;;;;;25.75;17.92;;;;;;;;;;4980985;28;20278;-84
2023/03/16 02:19:03;;;;;;;26.60;18.95;;;;;;;;;;4948551;28;20298;-84
2023/03/16 02:21:36;;;;;;;28.08;18.52;;;;;;;;;;4982053;28;20293;-84
2023/03/16 02:24:06;;;;;;;27.00;19.60;;;;;;;;;;4965051;28;20294;-84
2023/03/16 02:26:37;;;;;;;27.27;18.85;;;;;;;;;;4964502;28;20574;-83
2023/03/16 02:29:12;;;;;;;25.50;18.05;;;;;;;;;;4965114;28;20266;-83
2023/03/16 02:31:42;;;;;;;23.42;17.08;;;;;;;;;;4965175;28;20247;-82
2023/03/16 02:34:11;;;;;;;25.50;18.13;;;;;;;;;;4982815;28;20315;-84
2023/03/16 02:36:40;;;;;;;25.63;19.60;;;;;;;;;;4982068;28;20259;-84
2023/03/16 02:39:09;;;;;;;26.90;18.70;;;;;;;;;;4948866;28;20226;-84
2023/03/16 02:41:45;;;;;;;26.08;19.42;;;;;;;;;;4964855;28;20199;-84
2023/03/16 02:44:17;;;;;;;23.80;17.88;;;;;;;;;;4963983;28;20206;-83
2023/03/16 02:46:48;;;;;;;26.95;19.27;;;;;;;;;;4951731;28;20270;-84
2023/03/16 02:49:20;;;;;;;24.90;18.55;;;;;;;;;;4960421;29;20359;-84
2023/03/16 02:51:48;;;;;;;27.13;19.10;;;;;;;;;;4949305;29;20276;-84
2023/03/16 02:54:18;;;;;;;24.27;17.17;;;;;;;;;;4933090;29;20288;-84
2023/03/16 02:56:46;;;;;;;28.10;19.40;;;;;;;;;;4965564;29;20746;-84
2023/03/16 02:59:15;;;;;;;25.75;18.77;;;;;;;;;;4932854;29;20327;-84
2023/03/16 03:01:45;;;;;;;27.20;19.02;;;;;;;;;;4958510;28;20278;-84
2023/03/16 03:04:15;;;;;;;27.10;18.75;;;;;;;;;;4966825;28;20490;-85
2023/03/16 03:06:44;;;;;;;28.08;19.40;;;;;;;;;;4968620;28;20251;-83
2023/03/16 03:09:12;;;;;;;27.65;18.77;;;;;;;;;;4967944;28;20282;-83
2023/03/16 03:11:42;;;;;;;27.95;20.05;;;;;;;;;;4967824;28;20254;-84
2023/03/16 03:14:15;;;;;;;24.98;18.30;;;;;;;;;;4967662;28;20274;-83
2023/03/16 03:16:45;;;;;;;26.25;19.40;;;;;;;;;;4967241;28;20196;-84
2023/03/16 03:19:16;;;;;;;34.55;20.80;;;;;;;;;;4967296;28;20275;-83
2023/03/16 03:21:45;;;;;;;34.75;20.02;;;;;;;;;;4966439;28;20313;-84
2023/03/16 03:24:13;;;;;;;38.25;21.52;;;;;;;;;;4966305;28;20291;-84
2023/03/16 03:26:43;;;;;;;33.80;21.10;;;;;;;;;;4985100;28;20334;-84
2023/03/16 03:29:19;;;;;;;31.23;20.00;;;;;;;;;;4951208;28;20702;-84
2023/03/16 03:31:47;;;;;;;29.50;20.50;;;;;;;;;;4967755;28;20291;-84
2023/03/16 03:34:17;;;;;;;28.02;19.45;;;;;;;;;;4950530;28;20314;-84
2023/03/16 03:36:45;;;;;;;33.47;21.58;;;;;;;;;;4951541;28;20294;-84
2023/03/16 03:39:14;;;;;;;29.95;20.83;;;;;;;;;;4949871;28;20649;-84
2023/03/16 03:41:42;;;;;;;33.00;20.65;;;;;;;;;;4949224;29;20295;-84
2023/03/16 03:44:10;;;;;;;31.33;21.13;;;;;;;;;;4949102;29;20287;-83
2023/03/16 03:46:39;;;;;;;31.02;22.00;;;;;;;;;;4950572;28;20192;-83
2023/03/16 03:49:08;;;;;;;30.33;20.75;;;;;;;;;;4983642;28;20267;-84
2023/03/16 03:51:39;;;;;;;30.13;21.13;;;;;;;;;;4965983;28;20359;-84
2023/03/16 03:54:12;;;;;;;33.70;20.42;;;;;;;;;;4950392;28;20628;-85
2023/03/16 03:57:06;;;;;;;34.15;22.23;;;;;;;;;;4961696;28;20282;-84
2023/03/16 03:59:41;;;;;;;36.03;23.92;;;;;;;;;;4967058;28;20237;-84
2023/03/16 04:02:28;;;;;;;35.17;23.30;;;;;;;;;;4965908;28;20298;-84
2023/03/16 04:04:57;;;;;;;35.53;22.73;;;;;;;;;;4966601;28;20290;-84
2023/03/16 04:07:27;;;;;;;32.63;22.17;;;;;;;;;;4952160;28;20734;-84
2023/03/16 04:09:59;;;;;;;37.72;23.30;;;;;;;;;;4951193;28;20247;-84
2023/03/16 04:12:34;;;;;;;35.78;23.25;;;;;;;;;;4940489;29;20275;-84
2023/03/16 04:15:02;;;;;;;36.33;23.45;;;;;;;;;;4930288;29;20268;-84
2023/03/16 04:17:36;;;;;;;38.08;23.20;;;;;;;;;;4948352;29;20200;-85
2023/03/16 04:20:14;;;;;;;36.53;23.08;;;;;;;;;;4947457;28;20255;-84
2023/03/16 04:22:45;;;;;;;36.80;23.20;;;;;;;;;;4931964;29;20252;-84
2023/03/16 04:25:15;;;;;;;33.67;22.30;;;;;;;;;;4948535;28;20264;-83
2023/03/16 04:27:45;;;;;;;38.65;21.95;;;;;;;;;;4932515;29;20192;-84
2023/03/16 04:30:15;;;;;;;36.13;21.98;;;;;;;;;;4948367;29;20275;-84
2023/03/16 04:32:49;;;;;;;34.22;23.40;;;;;;;;;;4954237;29;20236;-84
2023/03/16 04:35:21;;;;;;;38.60;25.17;;;;;;;;;;4961616;28;20259;-83
2023/03/16 04:37:55;;;;;;;36.28;22.70;;;;;;;;;;4962003;29;20223;-83
2023/03/16 04:40:30;;;;;;;37.83;23.63;;;;;;;;;;4952620;29;20285;-84
2023/03/16 04:43:07;;;;;;;37.63;23.63;;;;;;;;;;4932292;28;20236;-83
2023/03/16 04:45:36;;;;;;;38.55;24.20;;;;;;;;;;4932223;29;20259;-84
2023/03/16 04:48:05;;;;;;;35.80;24.20;;;;;;;;;;4964381;29;20293;-83
2023/03/16 04:50:34;;;;;;;35.70;23.75;;;;;;;;;;4930577;29;20255;-84
2023/03/16 04:53:04;;;;;;;38.58;25.08;;;;;;;;;;4929997;29;20204;-83
2023/03/16 04:55:34;;;;;;;47.00;25.05;;;;;;;;;;4946092;29;20323;-84
2023/03/16 04:58:03;;;;;;;35.38;22.02;;;;;;;;;;4930627;29;20315;-84
2023/03/16 05:00:35;;;;;;;43.90;25.77;;;;;;;;;;4963090;28;20211;-84
2023/03/16 05:03:18;;;;;;;36.47;23.15;;;;;;;;;;4947910;28;20250;-83
2023/03/16 05:05:47;;;;;;;37.80;24.20;;;;;;;;;;4964878;28;20637;-84
2023/03/16 05:08:17;;;;;;;43.15;25.88;;;;;;;;;;4963323;28;20738;-83
2023/03/16 05:10:50;;;;;;;43.00;24.88;;;;;;;;;;4964289;28;20243;-83
2023/03/16 05:13:19;;;;;;;36.35;24.40;;;;;;;;;;4965683;28;20279;-83
2023/03/16 05:15:52;;;;;;;40.90;24.83;;;;;;;;;;4956144;29;20256;-83
2023/03/16 05:18:27;;;;;;;42.22;24.35;;;;;;;;;;4944597;29;20267;-83
2023/03/16 05:20:56;;;;;;;40.75;24.13;;;;;;;;;;4929625;29;20362;-83
2023/03/16 05:23:30;;;;;;;52.65;25.88;;;;;;;;;;4930649;29;20267;-83
2023/03/16 05:26:02;;;;;;;54.78;27.65;;;;;;;;;;4930841;29;20272;-83
2023/03/16 05:28:34;;;;;;;43.88;25.90;;;;;;;;;;4945733;29;20727;-83
2023/03/16 05:31:06;;;;;;;41.40;25.33;;;;;;;;;;4946817;29;20272;-83
2023/03/16 05:33:40;;;;;;;46.85;26.73;;;;;;;;;;4946838;29;20318;-83
2023/03/16 05:36:11;;;;;;;44.17;25.70;;;;;;;;;;4946430;28;20283;-83
2023/03/16 05:38:44;;;;;;;43.88;28.40;;;;;;;;;;4946128;29;20189;-83
2023/03/16 05:41:17;;;;;;;42.38;27.08;;;;;;;;;;4945882;28;20310;-84
2023/03/16 05:43:57;;;;;;;44.10;24.70;;;;;;;;;;4931349;29;20766;-84
2023/03/16 05:46:29;;;;;;;49.88;27.67;;;;;;;;;;4946113;29;20267;-83
2023/03/16 05:48:58;;;;;;;39.65;25.92;;;;;;;;;;4945325;29;20263;-83
2023/03/16 05:51:26;;;;;;;39.97;25.25;;;;;;;;;;4946681;29;20351;-83
2023/03/16 05:53:57;;;;;;;43.40;24.40;;;;;;;;;;4945977;29;20287;-83
2023/03/16 05:56:35;;;;;;;45.97;26.08;;;;;;;;;;4942682;28;20626;-83
2023/03/16 05:59:03;;;;;;;46.53;28.77;;;;;;;;;;4965174;28;20649;-82
2023/03/16 06:01:32;;;;;;;45.15;28.08;;;;;;;;;;4965812;28;20294;-82
2023/03/16 06:04:02;;;;;;;52.15;31.38;;;;;;;;;;4960585;28;20275;-83
2023/03/16 06:06:34;;;;;;;42.55;26.85;;;;;;;;;;4930392;29;20276;-83
2023/03/16 06:09:20;;;;;;;50.45;28.40;;;;;;;;;;4944477;29;20271;-83
2023/03/16 06:11:48;;;;;;;50.45;31.08;;;;;;;;;;4944494;29;20274;-83
2023/03/16 06:14:19;;;;;;;44.72;27.42;;;;;;;;;;4944665;29;20259;-83
2023/03/16 06:16:48;;;;;;;43.42;26.58;;;;;;;;;;4945005;29;20259;-83
2023/03/16 06:19:17;;;;;;;45.85;26.58;;;;;;;;;;4928851;28;20200;-83
2023/03/16 06:21:48;;;;;;;44.10;25.70;;;;;;;;;;4944515;29;20252;-82
2023/03/16 06:24:16;;;;;;;42.47;26.80;;;;;;;;;;4960741;29;20659;-83
2023/03/16 06:26:46;;;;;;;40.30;25.00;;;;;;;;;;4961159;29;20204;-83
2023/03/16 06:29:15;;;;;;;40.95;24.77;;;;;;;;;;4945069;28;20256;-83
2023/03/16 06:31:43;;;;;;;45.95;26.23;;;;;;;;;;4945743;29;20260;-83
2023/03/16 06:34:12;;;;;;;57.30;27.23;;;;;;;;;;4938961;28;20328;-83
2023/03/16 06:36:43;;;;;;;44.70;25.15;;;;;;;;;;4924074;29;20269;-83
2023/03/16 06:39:14;;;;;;;38.60;25.17;;;;;;;;;;4908142;29;20276;-83
2023/03/16 06:41:45;;;;;;;47.90;28.42;;;;;;;;;;4908730;29;20229;-84
2023/03/16 06:44:16;;;;;;;43.08;27.17;;;;;;;;;;4916215;29;20237;-83
2023/03/16 06:47:09;;;;;;;43.63;26.13;;;;;;;;;;4895483;29;20220;-83
2023/03/16 06:49:37;;;;;;;45.45;25.42;;;;;;;;;;4893091;29;20265;-83
2023/03/16 06:52:14;;;;;;;38.35;23.73;;;;;;;;;;4893243;29;20280;-84
2023/03/16 06:54:42;;;;;;;40.10;26.10;;;;;;;;;;4909389;29;20184;-83
2023/03/16 06:57:12;;;;;;;43.28;28.48;;;;;;;;;;4944187;29;20252;-83
2023/03/16 06:59:41;;;;;;;43.95;27.02;;;;;;;;;;4925724;29;20208;-83
2023/03/16 07:02:12;;;;;;;34.40;23.83;;;;;;;;;;4925550;29;20201;-84
2023/03/16 07:04:40;;;;;;;36.00;23.80;;;;;;;;;;4914468;29;20197;-84
2023/03/16 07:07:08;;;;;;;38.45;23.80;;;;;;;;;;4904736;29;20315;-84
2023/03/16 07:09:36;;;;;;;40.80;27.85;;;;;;;;;;4905391;29;20209;-84
2023/03/16 07:12:04;;;;;;;42.35;27.25;;;;;;;;;;4890466;29;20341;-84
2023/03/16 07:14:34;;;;;;;32.65;23.73;;;;;;;;;;4938740;29;20205;-84
2023/03/16 07:17:02;;;;;;;37.08;24.52;;;;;;;;;;4924645;29;20196;-83
2023/03/16 07:19:31;;;;;;;38.45;24.15;;;;;;;;;;4925076;29;20292;-82
2023/03/16 07:22:02;;;;;;;39.70;23.33;;;;;;;;;;4941791;29;20296;-83
2023/03/16 07:24:33;;;;;;;35.05;25.33;;;;;;;;;;4924442;29;20197;-82
2023/03/16 07:27:02;;;;;;;33.72;21.60;;;;;;;;;;4907879;29;20280;-83
2023/03/16 07:29:34;;;;;;;36.40;22.65;;;;;;;;;;4940988;29;20276;-83
2023/03/16 07:32:05;;;;;;;29.52;20.77;;;;;;;;;;4925507;29;20603;-83
2023/03/16 07:34:38;;;;;;;34.15;22.65;;;;;;;;;;4918814;29;20246;-83
2023/03/16 07:37:07;;;;;;;37.28;22.02;;;;;;;;;;4949091;28;20251;-83
2023/03/16 07:39:38;;;;;;;33.22;24.10;;;;;;;;;;4963611;28;20179;-84
2023/03/16 07:42:18;;;;;;;30.70;22.98;;;;;;;;;;4963928;28;20239;-84
2023/03/16 07:45:09;;;;;;;29.30;20.33;;;;;;;;;;4966491;28;20309;-83
2023/03/16 07:47:38;;;;;;;38.75;21.95;;;;;;;;;;4963991;28;20275;-83
2023/03/16 07:50:26;;;;;;;30.65;21.00;;;;;;;;;;4950792;28;20928;-84
2023/03/16 07:52:55;;;;;;;25.30;17.85;;;;;;;;;;4981377;28;20336;-82
2023/03/16 07:55:24;;;;;;;28.45;20.40;;;;;;;;;;4963173;28;20287;-83
2023/03/16 07:57:55;;;;;;;27.75;19.15;;;;;;;;;;4964981;28;20231;-84
2023/03/16 08:00:34;;;;;;;39.30;31.90;;;;;;;;;;4965179;28;20193;-84
2023/03/16 08:03:02;;;;;;;26.55;18.73;;;;;;;;;;4949358;28;20183;-84
2023/03/16 08:05:32;;;;;;;25.75;18.83;;;;;;;;;;4965021;28;20204;-83
2023/03/16 08:08:03;;;;;;;24.85;17.77;;;;;;;;;;4948158;28;20848;-84
2023/03/16 08:10:33;;;;;;;26.50;18.70;;;;;;;;;;4965585;28;20191;-84
2023/03/16 08:13:08;;;;;;;25.80;18.00;;;;;;;;;;4964663;28;20270;-84
2023/03/16 08:15:39;;;;;;;27.15;19.15;;;;;;;;;;4943953;29;20192;-85
2023/03/16 08:18:13;;;;;;;24.10;17.15;;;;;;;;;;4954574;28;20203;-82
2023/03/16 08:20:43;;;;;;;24.23;17.15;;;;;;;;;;4944237;29;20255;-83
2023/03/16 08:23:14;;;;;;;20.92;15.45;;;;;;;;;;4944559;28;20303;-83
2023/03/16 08:25:43;;;;;;;19.52;13.73;;;;;;;;;;4948424;28;20275;-84
2023/03/16 08:28:15;;;;;;;24.58;16.95;;;;;;;;;;4964657;28;20622;-86
2023/03/16 08:30:46;;;;;;;22.10;15.68;;;;;;;;;;4942461;28;20278;-84
2023/03/16 08:33:28;;;;;;;20.80;15.90;;;;;;;;;;4947670;28;20277;-85
2023/03/16 08:35:57;;;;;;;20.70;13.32;;;;;;;;;;4964534;28;20223;-84
2023/03/16 08:38:26;;;;;;;18.20;13.75;;;;;;;;;;4965014;28;20282;-83
2023/03/16 08:40:56;;;;;;;18.58;14.10;;;;;;;;;;4964879;28;20226;-86
2023/03/16 08:43:25;;;;;;;21.35;15.88;;;;;;;;;;4962941;28;20295;-87
2023/03/16 08:45:55;;;;;;;23.63;14.27;;;;;;;;;;4949047;28;20276;-85
2023/03/16 08:48:27;;;;;;;19.60;14.00;;;;;;;;;;4963520;28;20278;-85
2023/03/16 08:50:55;;;;;;;21.42;13.43;;;;;;;;;;4964657;28;20259;-86
2023/03/16 08:53:24;;;;;;;20.65;17.02;;;;;;;;;;4978289;28;20188;-86
2023/03/16 08:55:52;;;;;;;20.10;13.75;;;;;;;;;;4961678;28;20199;-86
2023/03/16 08:58:21;;;;;;;15.43;13.27;;;;;;;;;;4964663;28;20341;-85
2023/03/16 09:00:49;;;;;;;14.43;12.50;;;;;;;;;;4946658;28;20220;-84
2023/03/16 09:03:19;;;;;;;14.45;12.65;;;;;;;;;;4979123;28;20290;-84
2023/03/16 09:05:48;;;;;;;14.20;12.73;;;;;;;;;;4964785;28;20280;-84
2023/03/16 09:08:17;;;;;;;13.50;12.05;;;;;;;;;;4980106;28;20334;-85
2023/03/16 09:10:50;;;;;;;23.40;12.18;;;;;;;;;;4948384;28;20298;-85
2023/03/16 09:13:18;;;;;;;16.25;13.07;;;;;;;;;;4980233;28;20210;-85
2023/03/16 09:15:47;;;;;;;23.30;13.40;;;;;;;;;;4963813;28;20278;-84
2023/03/16 09:18:17;;;;;;;12.30;11.00;;;;;;;;;;4965780;28;20375;-85
2023/03/16 09:20:47;;;;;;;11.88;10.55;;;;;;;;;;4966262;28;20246;-84
2023/03/16 09:23:16;;;;;;;13.07;10.02;;;;;;;;;;4967171;28;20255;-85
2023/03/16 09:25:45;;;;;;;29.83;18.83;;;;;;;;;;4939405;28;20204;-85
2023/03/16 09:28:14;;;;;;;13.38;10.43;;;;;;;;;;4965118;28;20207;-85
2023/03/16 09:30:42;;;;;;;26.38;14.98;;;;;;;;;;4983144;28;20207;-84
2023/03/16 09:33:11;;;;;;;12.85;11.35;;;;;;;;;;4965397;28;20302;-84
2023/03/16 09:35:39;;;;;;;11.60;9.60;;;;;;;;;;4965902;28;20694;-85
2023/03/16 09:38:10;;;;;;;11.30;9.75;;;;;;;;;;4949845;28;20275;-84
2023/03/16 09:40:40;;;;;;;12.02;10.55;;;;;;;;;;4966520;28;20192;-85
2023/03/16 09:43:14;;;;;;;12.30;10.85;;;;;;;;;;4984641;28;20346;-85
2023/03/16 09:45:49;;;;;;;14.05;10.40;;;;;;;;;;4983922;28;20273;-85
2023/03/16 09:48:19;;;;;;;13.52;9.90;;;;;;;;;;4957871;28;20259;-84
2023/03/16 09:50:48;;;;;;;21.48;10.32;;;;;;;;;;4997623;28;20224;-85
2023/03/16 09:53:23;;;;;;;11.70;9.45;;;;;;;;;;4989426;28;20226;-85
2023/03/16 09:58:59;;;;;;;9.98;8.40;;;;;;;;;;4982747;28;20353;-84
2023/03/16 10:04:58;;;;;;;17.15;9.90;;;;;;;;;;4978806;28;20251;-85
2023/03/16 10:07:33;;;;;;;17.05;10.27;;;;;;;;;;4961070;28;20302;-85
2023/03/16 10:10:33;;;;;;;10.60;9.50;;;;;;;;;;4981165;28;20278;-83
2023/03/16 10:13:01;;;;;;;9.82;8.45;;;;;;;;;;4962082;28;20266;-87
2023/03/16 10:15:32;;;;;;;9.68;8.68;;;;;;;;;;4981772;28;20270;-85
2023/03/16 10:18:05;;;;;;;10.68;9.25;;;;;;;;;;4959765;28;20323;-86
2023/03/16 10:20:54;;;;;;;10.95;9.45;;;;;;;;;;4966179;28;20190;-86
2023/03/16 10:23:23;;;;;;;8.93;8.10;;;;;;;;;;4947575;28;20274;-85
2023/03/16 10:25:53;;;;;;;10.20;9.15;;;;;;;;;;4956045;28;20262;-84
2023/03/16 10:28:23;;;;;;;10.80;8.02;;;;;;;;;;4972303;28;20199;-84
2023/03/16 10:30:52;;;;;;;10.68;8.95;;;;;;;;;;4946641;28;20302;-83
2023/03/16 10:33:24;;;;;;;9.95;8.95;;;;;;;;;;4976806;28;20346;-83
2023/03/16 10:35:54;;;;;;;9.40;8.50;;;;;;;;;;4941015;28;20702;-84
2023/03/16 10:38:28;;;;;;;9.13;8.00;;;;;;;;;;4962968;28;20638;-84
2023/03/16 10:40:58;;;;;;;9.07;8.20;;;;;;;;;;4947646;28;20250;-83
2023/03/16 10:43:29;;;;;;;9.35;8.45;;;;;;;;;;4963408;28;20217;-84
2023/03/16 10:46:00;;;;;;;8.35;7.75;;;;;;;;;;4962822;28;20612;-83
2023/03/16 10:48:34;;;;;;;10.10;9.20;;;;;;;;;;4962387;28;20199;-86
2023/03/16 10:51:05;;;;;;;10.48;9.77;;;;;;;;;;4962802;28;20604;-84
2023/03/16 10:53:36;;;;;;;13.45;12.25;;;;;;;;;;4944689;28;20202;-85
2023/03/16 10:56:12;;;;;;;12.50;11.50;;;;;;;;;;4978594;28;20286;-83
2023/03/16 10:58:42;;;;;;;12.15;11.23;;;;;;;;;;4980439;28;20302;-85
2023/03/16 11:01:13;;;;;;;12.55;11.55;;;;;;;;;;4962859;28;20290;-85
2023/03/16 11:03:42;;;;;;;12.23;11.23;;;;;;;;;;4979067;28;20300;-85
2023/03/16 11:06:19;;;;;;;12.50;11.67;;;;;;;;;;4965280;28;20285;-85
2023/03/16 11:08:47;;;;;;;13.47;12.17;;;;;;;;;;4967447;28;20745;-85
2023/03/16 11:11:19;;;;;;;14.77;13.63;;;;;;;;;;4985162;28;21260;-85
2023/03/16 11:13:48;;;;;;;12.63;11.63;;;;;;;;;;4950540;28;20713;-86
2023/03/16 11:16:22;;;;;;;14.73;13.47;;;;;;;;;;4968683;28;20619;-86
2023/03/16 11:18:53;;;;;;;13.20;11.90;;;;;;;;;;4967826;28;20709;-85
2023/03/16 11:21:25;;;;;;;13.70;12.70;;;;;;;;;;4983040;28;20628;-84
2023/03/16 11:23:57;;;;;;;14.80;13.70;;;;;;;;;;4984257;28;20699;-84
2023/03/16 11:26:32;;;;;;;13.23;12.02;;;;;;;;;;4983401;28;20718;-84
2023/03/16 11:29:02;;;;;;;12.40;11.50;;;;;;;;;;4981153;28;20282;-83
2023/03/16 11:31:41;;;;;;;12.93;11.83;;;;;;;;;;4966741;28;20704;-83
2023/03/16 11:34:14;;;;;;;13.17;12.27;;;;;;;;;;4966703;28;21118;-82
2023/03/16 11:36:47;;;;;;;12.73;11.85;;;;;;;;;;4982643;28;21036;-83
2023/03/16 11:39:22;;;;;;;11.67;10.97;;;;;;;;;;4964150;28;20274;-82
2023/03/16 11:41:57;;;;;;;13.97;12.80;;;;;;;;;;4949743;28;21040;-84
2023/03/16 11:44:29;;;;;;;13.93;12.90;;;;;;;;;;4978220;28;20711;-83
2023/03/16 11:47:00;;;;;;;12.77;11.87;;;;;;;;;;4948159;28;20713;-83
2023/03/16 11:49:35;;;;;;;14.20;13.10;;;;;;;;;;4971504;28;20685;-83
2023/03/16 11:52:08;;;;;;;12.27;11.67;;;;;;;;;;4940855;29;20645;-84
2023/03/16 11:54:46;;;;;;;16.40;14.70;;;;;;;;;;4944324;28;20660;-86
2023/03/16 11:57:23;;;;;;;13.70;12.40;;;;;;;;;;4982009;28;20708;-85
2023/03/16 12:00:03;;;;;;;14.73;12.90;;;;;;;;;;4966864;28;20702;-85
2023/03/16 12:03:23;;;;;;;14.00;13.17;;;;;;;;;;4960172;29;20667;-85
2023/03/16 12:05:57;;;;;;;14.60;13.67;;;;;;;;;;4963224;28;20651;-85
2023/03/16 12:08:32;;;;;;;20.50;15.43;;;;;;;;;;4947506;29;20749;-85
2023/03/16 12:11:03;;;;;;;15.30;14.27;;;;;;;;;;4962655;29;20683;-87
2023/03/16 12:13:38;;;;;;;15.00;14.20;;;;;;;;;;4964847;29;20727;-86
2023/03/16 12:16:10;;;;;;;15.80;14.90;;;;;;;;;;4930714;29;20693;-85
2023/03/16 12:18:43;;;;;;;15.87;14.80;;;;;;;;;;4961319;28;20650;-84
2023/03/16 12:21:14;;;;;;;15.80;15.00;;;;;;;;;;4961018;29;20632;-84
2023/03/16 12:23:44;;;;;;;15.40;14.70;;;;;;;;;;4963240;29;20726;-85
2023/03/16 12:26:13;;;;;;;17.13;16.10;;;;;;;;;;4946730;28;20683;-85
2023/03/16 12:28:45;;;;;;;16.13;14.97;;;;;;;;;;4929698;29;21086;-85
2023/03/16 12:31:16;;;;;;;16.70;15.80;;;;;;;;;;4961827;29;20683;-85
2023/03/16 12:33:49;;;;;;;16.07;15.27;;;;;;;;;;4969679;28;20699;-85
2023/03/16 12:36:46;;;;;;;16.60;15.70;;;;;;;;;;4954037;29;20660;-85
2023/03/16 12:39:18;;;;;;;15.07;14.40;;;;;;;;;;4912594;28;21238;-85
2023/03/16 12:41:54;;;;;;;14.67;13.93;;;;;;;;;;4966843;28;20620;-85
2023/03/16 12:44:30;;;;;;;16.20;15.10;;;;;;;;;;4983923;28;20744;-87
2023/03/16 12:47:02;;;;;;;15.60;14.60;;;;;;;;;;4976718;28;20750;-86
2023/03/16 12:49:32;;;;;;;15.23;14.43;;;;;;;;;;4981259;28;21213;-87
2023/03/16 12:52:01;;;;;;;15.40;14.40;;;;;;;;;;4967932;28;20697;-85
2023/03/16 12:54:30;;;;;;;15.10;14.40;;;;;;;;;;4986135;28;20666;-86
2023/03/16 12:57:02;;;;;;;15.87;15.00;;;;;;;;;;4984199;28;20765;-86
2023/03/16 12:59:40;;;;;;;14.90;14.10;;;;;;;;;;4969051;28;20698;-85
2023/03/16 13:02:12;;;;;;;15.40;14.60;;;;;;;;;;4966630;28;20697;-87
2023/03/16 13:04:43;;;;;;;14.70;13.93;;;;;;;;;;4966986;28;21063;-86
2023/03/16 13:07:16;;;;;;;15.77;14.87;;;;;;;;;;4950035;28;21312;-85
2023/03/16 13:09:48;;;;;;;18.23;16.87;;;;;;;;;;4966497;28;20619;-84
2023/03/16 13:12:23;;;;;;;20.67;19.10;;;;;;;;;;4966354;28;21191;-84
2023/03/16 13:14:54;;;;;;;15.63;14.63;;;;;;;;;;4981904;28;20658;-86
2023/03/16 13:17:24;;;;;;;20.00;18.07;;;;;;;;;;4949633;28;20674;-83
2023/03/16 13:20:00;;;;;;;15.60;14.70;;;;;;;;;;4950226;28;20723;-85
2023/03/16 13:22:30;;;;;;;15.77;15.07;;;;;;;;;;4982630;28;20670;-86
2023/03/16 13:25:14;;;;;;;15.50;14.80;;;;;;;;;;4950223;28;20710;-85
2023/03/16 13:27:44;;;;;;;15.53;14.70;;;;;;;;;;4965580;28;20702;-85
2023/03/16 13:30:20;;;;;;;15.77;14.67;;;;;;;;;;4965657;28;20686;-85
2023/03/16 13:32:49;;;;;;;15.80;15.00;;;;;;;;;;4950266;28;20970;-87
2023/03/16 13:35:18;;;;;;;16.30;15.50;;;;;;;;;;4967544;28;20747;-86
2023/03/16 13:37:47;;;;;;;18.10;16.90;;;;;;;;;;4984507;28;21228;-86
2023/03/16 13:40:18;;;;;;;15.40;14.73;;;;;;;;;;4985723;28;21199;-86
2023/03/16 13:42:48;;;;;;;16.40;15.60;;;;;;;;;;4981851;28;20631;-86
2023/03/16 13:45:20;;;;;;;14.93;14.23;;;;;;;;;;4979476;28;20599;-85
2023/03/16 13:47:49;;;;;;;14.20;13.60;;;;;;;;;;4975077;28;20627;-85
2023/03/16 13:50:19;;;;;;;14.90;13.90;;;;;;;;;;4966596;28;20722;-85
2023/03/16 13:52:54;;;;;;;15.20;14.50;;;;;;;;;;4965037;28;20702;-84
2023/03/16 13:55:26;;;;;;;15.13;14.33;;;;;;;;;;4949528;28;20726;-84
2023/03/16 13:57:54;;;;;;;14.50;13.87;;;;;;;;;;4964556;28;20662;-84
2023/03/16 14:00:27;;;;;;;15.23;14.23;;;;;;;;;;4964958;28;20715;-84
2023/03/16 14:02:57;;;;;;;13.63;12.93;;;;;;;;;;4980491;28;20591;-84
2023/03/16 14:05:26;;;;;;;15.00;14.30;;;;;;;;;;4968770;28;21245;-84
2023/03/16 14:07:56;;;;;;;14.57;13.77;;;;;;;;;;4981122;28;20738;-84
2023/03/16 14:10:26;;;;;;;14.37;13.77;;;;;;;;;;4963599;28;20713;-85
2023/03/16 14:12:55;;;;;;;14.23;13.63;;;;;;;;;;4959261;28;20713;-82
2023/03/16 14:15:25;;;;;;;14.30;13.60;;;;;;;;;;4969643;28;20711;-83
2023/03/16 14:18:06;;;;;;;14.40;13.57;;;;;;;;;;4982304;28;20706;-84
2023/03/16 14:20:34;;;;;;;14.47;13.77;;;;;;;;;;4964806;28;20686;-84
2023/03/16 14:23:05;;;;;;;14.23;13.60;;;;;;;;;;4964563;28;20718;-85
2023/03/16 14:25:33;;;;;;;14.23;13.63;;;;;;;;;;4982598;28;20710;-85
2023/03/16 14:28:03;;;;;;;19.23;14.33;;;;;;;;;;4977397;28;20731;-85
2023/03/16 14:30:31;;;;;;;14.40;13.67;;;;;;;;;;4977362;28;20638;-85
2023/03/16 14:33:03;;;;;;;14.57;13.77;;;;;;;;;;4943871;28;21024;-86
2023/03/16 14:35:40;;;;;;;12.68;12.00;;;;;;;;;;4940214;29;20852;-87
2023/03/16 14:38:22;;;;;;;14.83;14.03;;;;;;;;;;4941255;29;20326;-85
2023/03/16 14:40:54;;;;;;;15.23;14.13;;;;;;;;;;4936198;29;20728;-84
2023/03/16 14:43:27;;;;;;;14.67;14.00;;;;;;;;;;4942125;29;20732;-84
2023/03/16 14:45:56;;;;;;;14.90;14.00;;;;;;;;;;4942268;29;20714;-85
2023/03/16 14:48:27;;;;;;;14.70;14.00;;;;;;;;;;4940241;29;20738;-84
2023/03/16 14:50:57;;;;;;;13.90;13.30;;;;;;;;;;4941413;29;21054;-85